Time;durP1;ratioP1;P1;durP2;ratioP2;P2;SDS_P1;SDS_P2;PMS_P1;PMS_P2;Temp;Humidity;BMP_temperature;BMP_pressure;BME280_temperature;BME280_humidity;BME280_pressure;Samples;Min_cycle;Max_cycle;Signal;HPM_P1;HPM_P2
2023/05/09 00:02:07;;;;;;;4.10;3.47;;;;;;;14.89;58.66;95263.28;5042678;28;20052;-76
2023/05/09 00:04:34;;;;;;;5.43;4.00;;;;;;;14.85;58.80;95259.91;5044289;28;20078;-74
2023/05/09 00:07:00;;;;;;;7.07;3.67;;;;;;;14.86;59.03;95258.69;5042444;28;20031;-73
2023/05/09 00:09:25;;;;;;;5.18;4.00;;;;;;;14.83;59.18;95254.06;5043968;28;20037;-74
2023/05/09 00:11:51;;;;;;;4.40;3.45;;;;;;;14.82;59.15;95255.28;5044043;28;20029;-74
2023/05/09 00:14:17;;;;;;;5.25;4.43;;;;;;;14.79;59.30;95248.66;5044733;28;20087;-74
2023/05/09 00:16:43;;;;;;;4.45;3.85;;;;;;;14.77;59.27;95253.88;5043215;28;20123;-73
2023/05/09 00:19:08;;;;;;;5.30;4.10;;;;;;;14.74;59.61;95259.56;5042891;28;20033;-73
2023/05/09 00:21:34;;;;;;;4.88;4.32;;;;;;;14.60;59.99;95253.34;5044781;28;20033;-73
2023/05/09 00:24:00;;;;;;;4.57;4.03;;;;;;;14.48;60.38;95248.69;5042453;28;20071;-73
2023/05/09 00:26:26;;;;;;;4.63;4.20;;;;;;;14.48;60.40;95242.41;5043832;28;20031;-73
2023/05/09 00:28:52;;;;;;;4.18;3.65;;;;;;;14.42;60.32;95247.72;5043367;28;20028;-74
2023/05/09 00:31:19;;;;;;;4.22;3.35;;;;;;;14.27;60.70;95243.97;5043506;28;20040;-74
2023/05/09 00:33:44;;;;;;;4.22;3.67;;;;;;;14.00;61.46;95241.84;5042979;28;20036;-73
2023/05/09 00:36:10;;;;;;;3.75;3.35;;;;;;;13.77;61.98;95240.31;5042823;28;20376;-75
2023/05/09 00:38:35;;;;;;;4.05;3.53;;;;;;;13.57;62.67;95237.09;5026324;28;20032;-73
2023/05/09 00:41:00;;;;;;;5.00;3.83;;;;;;;13.47;62.97;95236.22;5043789;28;20099;-73
2023/05/09 00:43:26;;;;;;;4.53;3.70;;;;;;;13.41;63.07;95235.25;5044830;28;20033;-73
2023/05/09 00:45:51;;;;;;;3.38;3.05;;;;;;;13.33;63.04;95225.69;5041823;28;20139;-72
2023/05/09 00:48:17;;;;;;;3.55;3.20;;;;;;;13.36;63.20;95227.56;5028741;28;20495;-73
2023/05/09 00:50:42;;;;;;;3.88;3.30;;;;;;;13.33;63.22;95229.22;5043373;28;20495;-73
2023/05/09 00:53:09;;;;;;;4.40;3.55;;;;;;;13.19;63.59;95236.00;5043308;28;20048;-73
2023/05/09 00:55:34;;;;;;;3.78;3.30;;;;;;;13.12;63.71;95227.16;5026196;28;20498;-73
2023/05/09 00:58:00;;;;;;;4.53;3.90;;;;;;;13.04;63.95;95232.16;5044878;28;20025;-74
2023/05/09 01:00:25;;;;;;;5.70;4.47;;;;;;;13.21;63.40;95232.81;5048462;28;20082;-73
2023/05/09 01:02:53;;;;;;;6.18;4.30;;;;;;;13.39;62.95;95234.94;5047165;28;20415;-73
2023/05/09 01:05:19;;;;;;;4.55;3.95;;;;;;;13.53;62.42;95232.47;5047590;28;20051;-73
2023/05/09 01:08:02;;;;;;;6.65;3.72;;;;;;;13.67;62.05;95227.66;5045722;28;20056;-74
2023/05/09 01:10:43;;;;;;;5.43;3.93;;;;;;;13.79;61.48;95235.88;5030228;28;20025;-72
2023/05/09 01:13:19;;;;;;;4.32;3.58;;;;;;;13.84;61.28;95233.75;5046826;28;20029;-73
2023/05/09 01:15:45;;;;;;;4.75;3.20;;;;;;;13.94;60.83;95232.59;5028989;28;20082;-73
2023/05/09 01:18:16;;;;;;;4.28;3.70;;;;;;;14.01;60.48;95240.63;5047347;28;20542;-73
2023/05/09 01:20:45;;;;;;;5.85;3.90;;;;;;;14.04;60.40;95232.16;5047257;28;20086;-74
2023/05/09 01:23:47;;;;;;;6.53;3.60;;;;;;;14.18;60.04;95243.94;5046890;28;20091;-73
2023/05/09 01:26:21;;;;;;;6.40;3.50;;;;;;;14.24;59.83;95236.59;5047983;28;20037;-73
2023/05/09 01:29:00;;;;;;;4.20;3.33;;;;;;;14.27;59.71;95241.19;5045592;28;20407;-74
2023/05/09 01:31:26;;;;;;;4.22;3.50;;;;;;;14.17;59.75;95234.09;5048607;28;20021;-73
2023/05/09 01:33:55;;;;;;;4.53;3.90;;;;;;;14.17;59.72;95242.41;5045552;28;20021;-75
2023/05/09 01:36:20;;;;;;;4.90;3.40;;;;;;;14.05;59.99;95228.19;5046430;28;20029;-74
2023/05/09 01:38:47;;;;;;;4.05;3.55;;;;;;;14.06;59.88;95235.28;5046036;28;20036;-73
2023/05/09 01:41:15;;;;;;;4.78;3.53;;;;;;;13.94;60.10;95238.88;5046740;28;20025;-72
2023/05/09 01:43:41;;;;;;;4.75;3.60;;;;;;;13.98;60.04;95238.75;5030133;28;20521;-74
2023/05/09 01:46:07;;;;;;;4.07;3.30;;;;;;;14.03;59.93;95243.69;5045383;28;20021;-74
2023/05/09 01:48:35;;;;;;;4.85;3.70;;;;;;;13.95;60.22;95247.94;5046794;28;20036;-73
2023/05/09 01:51:01;;;;;;;4.43;3.83;;;;;;;14.00;59.95;95245.38;5044943;28;20036;-73
2023/05/09 01:53:27;;;;;;;4.15;3.60;;;;;;;14.06;59.96;95246.31;5046367;28;20029;-74
2023/05/09 01:55:53;;;;;;;4.28;3.38;;;;;;;14.15;59.89;95247.59;5045599;28;20536;-74
2023/05/09 01:58:20;;;;;;;4.97;3.65;;;;;;;14.20;59.76;95250.53;5029290;28;20025;-73
2023/05/09 02:00:47;;;;;;;4.85;3.40;;;;;;;14.26;59.63;95247.94;5045639;28;20068;-73
2023/05/09 02:03:12;;;;;;;6.50;3.70;;;;;;;14.29;59.57;95247.81;5045243;28;20041;-73
2023/05/09 02:05:38;;;;;;;4.13;3.55;;;;;;;14.34;59.38;95249.25;5046253;28;20023;-73
2023/05/09 02:08:04;;;;;;;5.65;3.60;;;;;;;14.38;59.30;95247.09;5044538;28;20453;-73
2023/05/09 02:10:30;;;;;;;4.90;3.53;;;;;;;14.39;59.31;95245.84;5029465;28;20209;-74
2023/05/09 02:12:56;;;;;;;5.55;3.53;;;;;;;14.46;59.22;95258.66;5044846;28;20147;-73
2023/05/09 02:15:21;;;;;;;5.90;3.53;;;;;;;14.47;58.93;95255.47;5045467;28;20029;-74
2023/05/09 02:17:47;;;;;;;3.80;3.45;;;;;;;14.52;58.92;95252.13;5044921;28;20029;-74
2023/05/09 02:20:13;;;;;;;4.97;3.42;;;;;;;14.48;59.08;95240.41;5046651;28;20029;-73
2023/05/09 02:22:40;;;;;;;6.32;3.53;;;;;;;14.55;58.82;95242.88;5046838;28;20027;-74
2023/05/09 02:25:06;;;;;;;4.85;4.20;;;;;;;14.50;58.63;95232.41;5045705;28;20029;-73
2023/05/09 02:27:33;;;;;;;5.85;3.75;;;;;;;14.55;58.72;95244.88;5045891;28;20024;-72
2023/05/09 02:30:02;;;;;;;5.18;4.10;;;;;;;14.57;58.59;95254.28;5044314;28;20132;-74
2023/05/09 02:32:30;;;;;;;5.75;4.82;;;;;;;14.57;58.57;95246.00;5046019;28;20025;-72
2023/05/09 02:34:57;;;;;;;4.65;4.00;;;;;;;14.55;58.33;95245.66;5044761;28;20112;-73
2023/05/09 02:37:23;;;;;;;4.38;3.63;;;;;;;14.56;58.14;95249.19;5046945;28;20033;-75
2023/05/09 02:39:49;;;;;;;4.40;3.50;;;;;;;14.57;57.96;95245.22;5046525;28;20057;-75
2023/05/09 02:42:20;;;;;;;5.07;3.38;;;;;;;14.55;58.10;95244.88;5045763;28;20111;-73
2023/05/09 02:44:46;;;;;;;5.18;4.00;;;;;;;14.53;58.27;95241.81;5047208;28;20064;-73
2023/05/09 02:47:11;;;;;;;4.05;3.40;;;;;;;14.50;58.15;95243.47;5043857;28;20510;-73
2023/05/09 02:49:37;;;;;;;4.22;3.60;;;;;;;14.47;58.29;95238.88;5046645;28;20029;-74
2023/05/09 02:52:02;;;;;;;4.95;3.60;;;;;;;14.49;58.34;95247.47;5045808;28;20087;-74
2023/05/09 02:54:28;;;;;;;4.43;3.47;;;;;;;14.48;58.32;95243.16;5046357;28;20814;-73
2023/05/09 02:56:53;;;;;;;6.25;3.55;;;;;;;14.47;58.28;95243.63;5044590;28;20108;-74
2023/05/09 02:59:19;;;;;;;6.57;3.67;;;;;;;14.47;58.49;95244.41;5044255;28;20036;-74
2023/05/09 03:01:45;;;;;;;6.15;4.22;;;;;;;14.48;58.47;95243.16;5044801;28;20049;-74
2023/05/09 03:04:10;;;;;;;5.47;3.67;;;;;;;14.48;58.48;95248.69;5045187;28;20039;-74
2023/05/09 03:06:36;;;;;;;5.82;4.43;;;;;;;14.46;58.46;95248.38;5046908;28;20453;-73
2023/05/09 03:09:02;;;;;;;4.78;4.32;;;;;;;14.48;58.58;95250.69;5044752;28;20029;-74
2023/05/09 03:11:28;;;;;;;5.28;4.60;;;;;;;14.48;58.34;95259.78;5045044;28;20025;-74
2023/05/09 03:13:53;;;;;;;6.47;4.97;;;;;;;14.48;58.51;95259.78;5045277;28;20107;-73
2023/05/09 03:16:19;;;;;;;5.22;4.57;;;;;;;14.45;58.23;95268.97;5044074;28;20021;-74
2023/05/09 03:18:44;;;;;;;6.22;4.65;;;;;;;14.43;58.64;95271.38;5027600;28;20032;-74
2023/05/09 03:21:10;;;;;;;5.18;4.45;;;;;;;14.41;58.73;95275.84;5042962;28;20029;-73
2023/05/09 03:23:35;;;;;;;6.45;5.28;;;;;;;14.38;59.06;95277.50;5044967;28;20028;-75
2023/05/09 03:26:00;;;;;;;6.55;4.88;;;;;;;14.38;59.46;95277.50;5042832;28;20071;-75
2023/05/09 03:28:27;;;;;;;6.90;5.35;;;;;;;14.31;59.58;95264.72;5046522;28;20070;-73
2023/05/09 03:30:52;;;;;;;7.03;5.50;;;;;;;14.41;59.91;95284.16;5043381;28;20492;-73
2023/05/09 03:33:17;;;;;;;7.95;6.00;;;;;;;14.43;60.13;95285.22;5047996;28;20053;-72
2023/05/09 03:35:43;;;;;;;7.90;6.28;;;;;;;14.45;60.57;95285.56;5044015;28;20029;-74
2023/05/09 03:38:08;;;;;;;8.57;6.45;;;;;;;14.38;60.71;95291.34;5043728;28;20103;-74
2023/05/09 03:40:34;;;;;;;7.22;6.15;;;;;;;14.32;60.83;95293.91;5046047;28;20061;-74
2023/05/09 03:42:59;;;;;;;6.35;5.72;;;;;;;14.32;61.08;95293.91;5026215;28;20329;-75
2023/05/09 03:45:25;;;;;;;7.85;6.13;;;;;;;14.37;60.90;95295.34;5028146;28;20291;-73
2023/05/09 03:47:50;;;;;;;10.32;6.65;;;;;;;14.37;60.73;95289.03;5044077;28;20025;-74
2023/05/09 03:50:16;;;;;;;7.10;5.80;;;;;;;14.22;61.28;95289.59;5045490;28;20092;-74
2023/05/09 03:52:41;;;;;;;6.05;5.45;;;;;;;13.98;62.17;95292.03;5043554;28;20059;-74
2023/05/09 03:55:07;;;;;;;7.05;5.78;;;;;;;13.86;62.23;95292.09;5043523;28;20025;-74
2023/05/09 03:57:34;;;;;;;8.18;5.72;;;;;;;13.54;62.90;95294.00;5043664;28;20068;-74
2023/05/09 03:59:59;;;;;;;6.35;5.03;;;;;;;13.53;63.17;95295.19;5042927;28;20028;-73
2023/05/09 04:02:25;;;;;;;6.47;5.38;;;;;;;13.18;64.04;95286.09;5043989;28;20424;-73
2023/05/09 04:04:51;;;;;;;7.72;5.45;;;;;;;13.15;64.41;95284.25;5042466;28;20406;-74
2023/05/09 04:07:17;;;;;;;9.13;5.93;;;;;;;13.09;64.31;95292.31;5044404;28;20103;-73
2023/05/09 04:09:43;;;;;;;8.52;5.50;;;;;;;12.86;65.05;95287.94;5043954;28;20044;-73
2023/05/09 04:12:08;;;;;;;7.68;5.32;;;;;;;12.94;65.14;95292.00;5043491;28;20032;-74
2023/05/09 04:14:34;;;;;;;8.27;5.70;;;;;;;12.77;65.62;95291.34;5044438;28;20032;-74
2023/05/09 04:16:59;;;;;;;6.30;5.38;;;;;;;12.76;65.43;95298.09;5044072;28;20021;-73
2023/05/09 04:19:25;;;;;;;6.00;5.32;;;;;;;12.89;65.26;95300.84;5043532;28;20116;-73
2023/05/09 04:21:50;;;;;;;7.45;5.72;;;;;;;12.95;65.02;95304.59;5042333;28;20242;-74
2023/05/09 04:24:15;;;;;;;7.82;6.20;;;;;;;13.12;64.50;95298.94;5045261;28;20028;-73
2023/05/09 04:26:41;;;;;;;6.30;5.10;;;;;;;13.28;64.07;95298.81;5045767;28;20108;-74
2023/05/09 04:29:06;;;;;;;8.45;5.78;;;;;;;13.39;63.77;95304.75;5043698;28;20036;-74
2023/05/09 04:31:32;;;;;;;8.18;5.18;;;;;;;13.54;63.17;95303.06;5043752;28;20025;-74
2023/05/09 04:33:57;;;;;;;6.35;5.60;;;;;;;13.62;62.41;95305.56;5042797;28;20052;-74
2023/05/09 04:36:23;;;;;;;7.88;5.45;;;;;;;13.69;62.39;95310.84;5042989;28;20430;-74
2023/05/09 04:38:48;;;;;;;7.72;5.25;;;;;;;13.81;62.15;95304.50;5044086;28;20043;-73
2023/05/09 04:41:14;;;;;;;7.00;5.30;;;;;;;13.93;61.79;95314.72;5044904;28;20021;-73
2023/05/09 04:43:40;;;;;;;8.10;5.32;;;;;;;14.04;61.67;95315.09;5041904;28;20033;-73
2023/05/09 04:46:06;;;;;;;6.47;5.65;;;;;;;14.08;61.56;95312.22;5045097;28;20423;-73
2023/05/09 04:48:32;;;;;;;7.03;5.50;;;;;;;14.14;61.18;95309.63;5042036;28;20025;-73
2023/05/09 04:50:57;;;;;;;8.18;5.30;;;;;;;14.25;60.86;95315.53;5043392;28;20025;-73
2023/05/09 04:53:23;;;;;;;7.47;4.72;;;;;;;14.25;60.51;95315.53;5042803;28;20082;-75
2023/05/09 04:55:48;;;;;;;7.13;3.58;;;;;;;14.25;60.20;95313.56;5044141;28;20383;-75
2023/05/09 04:58:13;;;;;;;5.38;3.63;;;;;;;14.30;59.91;95318.50;5044056;28;20029;-75
2023/05/09 05:00:39;;;;;;;5.95;4.00;;;;;;;14.13;60.25;95319.94;5043693;28;20074;-74
2023/05/09 05:03:05;;;;;;;5.72;4.18;;;;;;;14.15;60.24;95311.19;5044465;28;20064;-73
2023/05/09 05:05:31;;;;;;;7.40;4.25;;;;;;;14.23;60.06;95310.47;5043082;28;20511;-74
2023/05/09 05:07:56;;;;;;;4.32;3.92;;;;;;;14.26;60.22;95311.56;5045023;28;20025;-75
2023/05/09 05:10:22;;;;;;;5.95;4.18;;;;;;;14.31;59.89;95311.75;5043344;28;20427;-74
2023/05/09 05:12:47;;;;;;;5.05;4.07;;;;;;;14.25;60.01;95310.78;5042832;28;20028;-73
2023/05/09 05:15:12;;;;;;;6.47;4.10;;;;;;;14.32;60.02;95310.50;5043568;28;20104;-72
2023/05/09 05:17:38;;;;;;;5.60;4.32;;;;;;;14.41;59.85;95309.03;5043724;28;20488;-73
2023/05/09 05:20:05;;;;;;;7.07;3.72;;;;;;;14.51;59.56;95302.38;5044624;28;20033;-73
2023/05/09 05:22:31;;;;;;;6.05;3.65;;;;;;;14.58;58.98;95319.44;5045655;28;20025;-74
2023/05/09 05:24:56;;;;;;;6.05;3.90;;;;;;;14.62;58.92;95308.22;5043608;28;20150;-74
2023/05/09 05:27:22;;;;;;;4.82;3.38;;;;;;;14.65;58.93;95307.34;5042713;28;20051;-74
2023/05/09 05:29:47;;;;;;;3.72;3.10;;;;;;;14.70;58.62;95312.28;5044511;28;20112;-73
2023/05/09 05:32:12;;;;;;;5.22;3.50;;;;;;;14.77;58.54;95311.22;5043462;28;20047;-74
2023/05/09 05:34:38;;;;;;;4.00;3.17;;;;;;;14.78;58.29;95315.53;5042401;28;20029;-74
2023/05/09 05:37:04;;;;;;;3.53;3.22;;;;;;;14.76;58.19;95318.75;5043821;28;20048;-73
2023/05/09 05:39:29;;;;;;;4.40;3.10;;;;;;;14.84;58.11;95320.00;5043067;28;20187;-73
2023/05/09 05:41:55;;;;;;;4.78;2.88;;;;;;;14.93;58.06;95316.53;5043340;28;20106;-73
2023/05/09 05:44:20;;;;;;;5.90;2.60;;;;;;;14.96;57.27;95323.13;5043654;28;20052;-73
2023/05/09 05:46:45;;;;;;;3.35;2.90;;;;;;;15.01;57.37;95317.78;5048355;28;20024;-73
2023/05/09 05:49:11;;;;;;;3.00;2.70;;;;;;;15.14;56.80;95321.22;5045487;28;20029;-74
2023/05/09 05:51:37;;;;;;;3.10;2.40;;;;;;;15.04;56.81;95327.19;5029315;28;20191;-74
2023/05/09 05:54:02;;;;;;;6.35;2.50;;;;;;;15.18;56.28;95323.06;5047340;28;20506;-74
2023/05/09 05:56:28;;;;;;;2.67;2.00;;;;;;;15.23;55.85;95328.00;5047050;28;20029;-73
2023/05/09 05:58:53;;;;;;;4.72;2.40;;;;;;;15.24;55.63;95321.97;5048310;28;20123;-74
2023/05/09 06:01:19;;;;;;;3.45;2.05;;;;;;;15.10;55.30;95326.13;5046389;28;20511;-74
2023/05/09 06:03:44;;;;;;;2.75;1.90;;;;;;;15.16;55.23;95317.97;5048168;28;20487;-74
2023/05/09 06:06:10;;;;;;;2.60;1.80;;;;;;;15.18;55.44;95323.81;5044649;28;20189;-75
2023/05/09 06:08:35;;;;;;;2.08;1.63;;;;;;;15.20;55.34;95323.38;5046056;28;20104;-74
2023/05/09 06:11:01;;;;;;;2.65;1.77;;;;;;;15.18;55.31;95325.81;5046915;28;20112;-74
2023/05/09 06:13:26;;;;;;;3.40;1.77;;;;;;;15.21;55.35;95322.91;5045372;28;20036;-74
2023/05/09 06:15:55;;;;;;;4.00;1.90;;;;;;;15.38;55.65;95323.41;5028856;28;20051;-74
2023/05/09 06:18:21;;;;;;;3.55;1.77;;;;;;;15.43;55.10;95322.81;5028657;28;20048;-74
2023/05/09 06:20:46;;;;;;;3.70;2.15;;;;;;;15.46;54.52;95315.56;5046149;28;20155;-75
2023/05/09 06:23:12;;;;;;;1.95;1.38;;;;;;;15.52;54.40;95319.28;5045601;28;20021;-74
2023/05/09 06:25:37;;;;;;;3.38;1.75;;;;;;;15.65;54.04;95317.16;5046371;28;20403;-72
2023/05/09 06:28:03;;;;;;;3.70;1.85;;;;;;;15.78;53.77;95314.25;5045818;28;20107;-73
2023/05/09 06:30:28;;;;;;;4.05;1.83;;;;;;;15.90;53.37;95319.63;5046852;28;20028;-73
2023/05/09 06:32:54;;;;;;;2.55;2.17;;;;;;;16.04;53.13;95325.78;5045055;28;20424;-74
2023/05/09 06:35:19;;;;;;;2.17;1.88;;;;;;;16.07;52.58;95320.09;5045190;28;20025;-75
2023/05/09 06:37:45;;;;;;;2.85;2.15;;;;;;;16.14;51.73;95311.44;5045054;28;20029;-75
2023/05/09 06:40:10;;;;;;;4.35;2.03;;;;;;;16.33;51.68;95317.72;5044270;28;20392;-75
2023/05/09 06:42:36;;;;;;;2.30;1.80;;;;;;;15.96;51.86;95311.47;5047022;28;20029;-74
2023/05/09 06:45:01;;;;;;;2.63;1.88;;;;;;;16.14;52.34;95322.53;5027284;28;20052;-74
2023/05/09 06:47:26;;;;;;;2.55;1.85;;;;;;;16.33;51.68;95311.41;5045044;28;20021;-78
2023/05/09 06:49:52;;;;;;;2.90;2.00;;;;;;;16.42;51.82;95317.72;5045538;28;20079;-74
2023/05/09 06:52:20;;;;;;;2.10;1.67;;;;;;;16.46;51.27;95314.81;5045386;28;20029;-74
2023/05/09 06:54:45;;;;;;;2.45;1.85;;;;;;;16.54;51.50;95318.00;5044952;28;20472;-74
2023/05/09 06:57:11;;;;;;;4.13;1.85;;;;;;;16.34;50.75;95319.25;5045640;28;20044;-74
2023/05/09 06:59:36;;;;;;;3.65;2.00;;;;;;;15.60;52.80;95315.00;5045242;28;20143;-75
2023/05/09 07:02:02;;;;;;;4.20;1.70;;;;;;;15.66;52.84;95313.16;5043550;28;20404;-75
2023/05/09 07:04:27;;;;;;;3.80;1.55;;;;;;;15.88;52.50;95310.22;5046904;28;20079;-74
2023/05/09 07:06:53;;;;;;;2.45;1.90;;;;;;;16.03;51.69;95305.59;5043873;28;20491;-75
2023/05/09 07:09:19;;;;;;;3.13;1.70;;;;;;;16.10;51.60;95304.53;5044537;28;20459;-74
2023/05/09 07:11:45;;;;;;;4.40;2.20;;;;;;;16.25;51.41;95310.22;5047416;28;20032;-76
2023/05/09 07:14:10;;;;;;;3.53;1.80;;;;;;;16.32;51.39;95299.56;5044425;28;20025;-75
2023/05/09 07:16:36;;;;;;;5.95;2.00;;;;;;;16.45;51.79;95302.13;5044402;28;20317;-75
2023/05/09 07:19:01;;;;;;;6.20;2.33;;;;;;;16.46;51.56;95304.47;5043936;28;20076;-75
2023/05/09 07:21:26;;;;;;;2.00;1.50;;;;;;;16.53;50.33;95311.69;5046637;28;20017;-74
2023/05/09 07:23:52;;;;;;;3.15;1.50;;;;;;;16.58;50.10;95304.75;5043312;28;20694;-76
2023/05/09 07:26:17;;;;;;;3.13;1.83;;;;;;;16.59;49.92;95306.28;5045472;28;20037;-76
2023/05/09 07:28:43;;;;;;;2.53;1.30;;;;;;;16.66;49.79;95312.25;5045889;28;20092;-75
2023/05/09 07:31:08;;;;;;;4.13;1.55;;;;;;;16.57;49.56;95317.06;5045604;28;20040;-75
2023/05/09 07:33:35;;;;;;;2.88;1.45;;;;;;;16.70;49.35;95314.88;5028491;28;20116;-76
2023/05/09 07:36:00;;;;;;;2.58;1.60;;;;;;;16.70;49.26;95312.09;5046845;28;20025;-75
2023/05/09 07:38:27;;;;;;;3.05;1.50;;;;;;;16.71;49.52;95314.44;5046130;28;20450;-76
2023/05/09 07:40:52;;;;;;;3.65;1.73;;;;;;;16.71;49.37;95319.22;5044781;28;20471;-76
2023/05/09 07:43:20;;;;;;;2.15;1.30;;;;;;;16.75;49.27;95311.50;5048404;28;20055;-76
2023/05/09 07:45:45;;;;;;;2.35;1.60;;;;;;;16.71;49.41;95317.22;5046383;28;20035;-77
2023/05/09 07:48:12;;;;;;;3.75;1.60;;;;;;;16.64;49.55;95311.97;5046656;28;20455;-75
2023/05/09 07:50:39;;;;;;;2.22;1.50;;;;;;;16.60;49.58;95324.47;5045301;28;20125;-74
2023/05/09 07:53:04;;;;;;;3.83;2.17;;;;;;;16.57;50.05;95315.06;5046914;28;20556;-77
2023/05/09 07:55:29;;;;;;;2.63;1.67;;;;;;;16.49;50.14;95324.19;5044417;28;20033;-76
2023/05/09 07:57:55;;;;;;;2.67;1.58;;;;;;;16.58;50.13;95326.94;5026755;28;20025;-80
2023/05/09 08:00:22;;;;;;;4.38;1.98;;;;;;;16.61;50.04;95321.22;5028564;28;20067;-76
2023/05/09 08:02:53;;;;;;;4.40;1.92;;;;;;;16.70;50.44;95321.22;5037180;28;20052;-76
2023/05/09 08:05:20;;;;;;;3.35;2.15;;;;;;;16.59;50.05;95312.59;5041457;28;20067;-81
2023/05/09 08:07:46;;;;;;;3.53;1.85;;;;;;;16.69;50.08;95314.09;5040312;28;20081;-77
2023/05/09 08:10:13;;;;;;;4.35;2.65;;;;;;;16.83;49.89;95309.91;5038604;28;20128;-75
2023/05/09 08:12:39;;;;;;;4.82;2.60;;;;;;;16.96;49.76;95309.69;5007937;28;20021;-74
2023/05/09 08:15:06;;;;;;;5.03;2.50;;;;;;;17.03;49.35;95320.47;5023619;28;20117;-74
2023/05/09 08:17:32;;;;;;;3.42;1.63;;;;;;;16.88;49.03;95317.59;5024889;28;20451;-75
2023/05/09 08:19:57;;;;;;;4.10;1.92;;;;;;;17.00;48.93;95318.63;5024659;28;20025;-75
2023/05/09 08:22:23;;;;;;;3.20;1.67;;;;;;;16.97;48.59;95316.78;5025102;28;20032;-74
2023/05/09 08:24:49;;;;;;;4.45;1.83;;;;;;;16.97;48.84;95317.59;5023639;28;20029;-73
2023/05/09 08:27:14;;;;;;;2.92;1.80;;;;;;;17.10;48.46;95317.38;5024544;28;20033;-75
2023/05/09 08:29:40;;;;;;;6.60;1.80;;;;;;;17.12;48.52;95316.88;5024076;28;20468;-75
2023/05/09 08:32:05;;;;;;;3.28;1.60;;;;;;;17.19;48.02;95314.53;5024742;28;20025;-75
2023/05/09 08:34:34;;;;;;;5.03;1.83;;;;;;;17.35;47.51;95315.38;5026215;28;20034;-74
2023/05/09 08:37:00;;;;;;;3.47;1.50;;;;;;;17.45;47.88;95303.72;5024150;28;20105;-75
2023/05/09 08:39:25;;;;;;;3.00;1.50;;;;;;;17.50;47.67;95311.44;5025315;28;20020;-75
2023/05/09 08:41:53;;;;;;;10.70;1.55;;;;;;;17.42;47.28;95309.47;5024574;28;20037;-74
2023/05/09 08:44:20;;;;;;;3.33;1.70;;;;;;;17.44;47.64;95318.09;5025101;28;20079;-74
2023/05/09 08:46:47;;;;;;;4.50;2.28;;;;;;;17.41;47.84;95314.25;5024485;28;20033;-75
2023/05/09 08:49:15;;;;;;;3.92;1.70;;;;;;;17.45;47.31;95314.84;5007768;28;20033;-75
2023/05/09 08:51:40;;;;;;;3.00;1.20;;;;;;;17.45;46.82;95309.28;4991888;28;20484;-74
2023/05/09 08:54:06;;;;;;;3.47;1.55;;;;;;;17.51;46.93;95304.63;5026304;28;20029;-75
2023/05/09 08:56:33;;;;;;;2.80;1.20;;;;;;;17.76;46.12;95308.94;5025026;28;20535;-75
2023/05/09 08:59:00;;;;;;;3.72;1.35;;;;;;;17.75;45.66;95314.97;5024174;28;20026;-76
2023/05/09 09:01:26;;;;;;;4.55;1.40;;;;;;;17.72;45.81;95313.13;5028920;28;20037;-76
2023/05/09 09:03:52;;;;;;;1.63;1.13;;;;;;;17.68;45.11;95304.97;5024166;28;20388;-73
2023/05/09 09:06:18;;;;;;;3.03;1.00;;;;;;;17.75;44.79;95303.84;5023541;28;20018;-75
2023/05/09 09:08:45;;;;;;;1.70;0.70;;;;;;;17.80;44.19;95314.31;5024525;28;20017;-76
2023/05/09 09:11:12;;;;;;;1.90;1.10;;;;;;;17.92;44.02;95302.19;5023815;28;20033;-75
2023/05/09 09:13:40;;;;;;;1.10;0.70;;;;;;;17.98;43.60;95307.84;5006861;28;20578;-75
2023/05/09 09:16:09;;;;;;;1.23;0.70;;;;;;;17.86;44.05;95300.53;5023534;28;20022;-75
2023/05/09 09:18:36;;;;;;;3.05;1.30;;;;;;;17.91;44.02;95308.22;5025695;28;20041;-74
2023/05/09 09:21:06;;;;;;;1.00;0.80;;;;;;;17.78;44.20;95306.47;5026752;28;20476;-75
2023/05/09 09:23:33;;;;;;;2.40;1.05;;;;;;;17.75;44.17;95301.09;5027625;28;20415;-75
2023/05/09 09:26:00;;;;;;;2.72;1.40;;;;;;;17.81;44.16;95299.19;5028059;28;20022;-74
2023/05/09 09:28:29;;;;;;;1.10;0.80;;;;;;;17.78;44.40;95289.78;5027245;28;20404;-74
2023/05/09 09:30:54;;;;;;;3.67;1.27;;;;;;;17.86;44.03;95297.75;5028601;28;20492;-74
2023/05/09 09:33:20;;;;;;;3.33;1.67;;;;;;;17.81;44.43;95295.63;5026628;28;20115;-74
2023/05/09 09:35:50;;;;;;;10.57;1.73;;;;;;;17.88;44.03;95298.81;5029740;28;20028;-74
2023/05/09 09:38:20;;;;;;;1.13;0.95;;;;;;;17.83;44.49;95298.69;5027125;28;20075;-75
2023/05/09 09:40:52;;;;;;;1.70;1.10;;;;;;;18.34;43.04;95297.63;5027930;28;20104;-75
2023/05/09 09:43:18;;;;;;;1.35;0.90;;;;;;;18.07;43.62;95295.88;5028047;28;20029;-75
2023/05/09 09:45:48;;;;;;;0.57;0.50;;;;;;;17.89;43.79;95296.78;5027644;28;20113;-74
2023/05/09 09:48:13;;;;;;;2.05;0.90;;;;;;;17.81;43.59;95296.41;5027061;28;20072;-75
2023/05/09 09:50:38;;;;;;;3.35;1.10;;;;;;;17.79;43.12;95310.00;5028256;28;20049;-75
2023/05/09 09:53:04;;;;;;;2.53;1.27;;;;;;;17.66;43.80;95306.66;5029016;28;20131;-75
2023/05/09 09:55:30;;;;;;;2.22;0.63;;;;;;;17.43;43.64;95308.22;5031635;28;20025;-74
2023/05/09 09:57:56;;;;;;;1.63;0.70;;;;;;;17.47;43.57;95306.03;5013966;28;20030;-75
2023/05/09 10:00:29;;;;;;;2.67;1.10;;;;;;;17.54;44.31;95305.66;5027714;28;20400;-76
2023/05/09 10:02:57;;;;;;;1.35;0.77;;;;;;;17.44;44.92;95301.44;5027206;28;20117;-74
2023/05/09 10:05:27;;;;;;;1.38;0.90;;;;;;;17.10;46.25;95297.91;5029200;28;20052;-75
2023/05/09 10:08:01;;;;;;;3.00;1.00;;;;;;;16.99;46.60;95290.09;5026832;28;20025;-75
2023/05/09 10:10:50;;;;;;;;;;;;;;;17.04;47.09;95296.25;5028350;28;20034;-75
2023/05/09 10:13:16;;;;;;;3.90;1.50;;;;;;;16.97;47.45;95289.03;5028650;28;19913;-75
2023/05/09 10:15:42;;;;;;;2.50;1.30;;;;;;;17.07;47.09;95287.75;5026743;28;20124;-74
2023/05/09 10:18:09;;;;;;;1.50;1.27;;;;;;;17.50;46.62;95274.53;5026697;28;20068;-75
2023/05/09 10:20:38;;;;;;;2.00;1.30;;;;;;;17.70;45.47;95280.22;5027189;28;20025;-75
2023/05/09 10:23:04;;;;;;;1.73;1.13;;;;;;;17.72;44.75;95277.00;5027483;28;20465;-75
2023/05/09 10:25:44;;;;;;;1.60;1.17;;;;;;;17.45;45.61;95270.38;5010095;28;20021;-75
2023/05/09 10:28:11;;;;;;;1.75;1.50;;;;;;;17.24;46.28;95274.22;5027127;28;20083;-74
2023/05/09 10:30:57;;;;;;;1.38;1.27;;;;;;;17.49;46.12;95278.53;5025495;28;20036;-75
2023/05/09 10:33:26;;;;;;;2.28;1.52;;;;;;;17.78;45.32;95275.88;5027557;28;20039;-75
2023/05/09 10:35:54;;;;;;;2.25;1.35;;;;;;;17.78;45.38;95266.78;5026975;28;20029;-75
2023/05/09 10:38:20;;;;;;;2.03;1.35;;;;;;;17.65;45.51;95266.97;5026401;28;20064;-75
2023/05/09 10:40:46;;;;;;;7.90;1.85;;;;;;;17.49;45.17;95268.19;5027519;28;20065;-74
2023/05/09 10:43:13;;;;;;;2.45;1.52;;;;;;;17.04;46.75;95277.59;5010156;28;20064;-76
2023/05/09 10:45:39;;;;;;;2.85;1.50;;;;;;;16.51;48.04;95280.84;5026349;28;20108;-75
2023/05/09 10:48:07;;;;;;;5.25;1.60;;;;;;;16.67;47.73;95272.16;5028550;28;20793;-76
2023/05/09 10:50:34;;;;;;;3.45;1.40;;;;;;;16.91;47.38;95279.78;5028778;28;20029;-75
2023/05/09 10:53:07;;;;;;;2.63;1.55;;;;;;;17.14;47.04;95273.50;5029459;28;20389;-75
2023/05/09 10:55:46;;;;;;;9.00;1.98;;;;;;;17.28;47.04;95272.03;5010161;28;20032;-74
2023/05/09 10:58:19;;;;;;;4.57;1.52;;;;;;;16.50;48.25;95275.78;5026966;28;20026;-75
2023/05/09 11:00:48;;;;;;;17.67;2.83;;;;;;;16.72;47.26;95277.09;5026633;28;20022;-76
2023/05/09 11:03:14;;;;;;;3.13;1.73;;;;;;;16.28;48.53;95273.97;5025930;28;20057;-76
2023/05/09 11:05:41;;;;;;;2.95;2.15;;;;;;;16.57;48.64;95281.75;5027281;28;20034;-74
2023/05/09 11:08:29;;;;;;;2.03;1.75;;;;;;;16.38;48.52;95278.25;5026889;28;20496;-76
2023/05/09 11:11:04;;;;;;;2.90;2.30;;;;;;;16.35;48.68;95289.53;5025782;28;20140;-75
2023/05/09 11:13:33;;;;;;;1.80;1.40;;;;;;;15.99;49.08;95282.03;5025073;28;20043;-75
2023/05/09 11:15:58;;;;;;;1.80;1.50;;;;;;;16.30;48.88;95281.84;5008653;28;20033;-74
2023/05/09 11:18:23;;;;;;;2.22;1.83;;;;;;;16.26;49.01;95272.91;5026790;28;20060;-74
2023/05/09 11:20:50;;;;;;;2.15;1.80;;;;;;;16.44;48.88;95279.16;5025143;28;20037;-75
2023/05/09 11:23:17;;;;;;;4.40;1.90;;;;;;;16.58;48.53;95272.22;5025589;28;20025;-76
2023/05/09 11:25:46;;;;;;;2.35;1.77;;;;;;;16.38;48.70;95278.25;5025283;28;20025;-75
2023/05/09 11:28:27;;;;;;;3.50;2.17;;;;;;;16.18;49.57;95278.78;5025909;28;20063;-75
2023/05/09 11:30:52;;;;;;;5.53;3.13;;;;;;;16.39;48.97;95268.69;5024572;28;20587;-76
2023/05/09 11:33:29;;;;;;;2.53;2.05;;;;;;;16.31;49.50;95275.81;4992117;28;20128;-75